createdAt,value
2018-06-08T00:00:46.308Z,28.28
2018-06-08T00:03:14.636Z,24.26
2018-06-08T00:05:42.947Z,31.96
2018-06-08T00:08:11.233Z,30.18
2018-06-08T00:10:40.192Z,28.28
2018-06-08T00:13:09.854Z,32.18
2018-06-08T00:15:39.173Z,31.64
2018-06-08T00:18:13.418Z,30.54
2018-06-08T00:20:41.733Z,28.68
2018-06-08T00:23:10.660Z,31.32
2018-06-08T00:25:38.912Z,27.26
2018-06-08T00:28:07.208Z,29.12
2018-06-08T00:30:35.465Z,30.24
2018-06-08T00:33:03.753Z,29.88
2018-06-08T00:35:32.014Z,30.84
2018-06-08T00:38:01.311Z,31.16
2018-06-08T00:40:29.608Z,31.86
2018-06-08T00:42:57.881Z,30.98
2018-06-08T00:45:27.508Z,30.96
2018-06-08T00:47:57.094Z,33.98
2018-06-08T00:50:25.375Z,30.80
2018-06-08T00:52:53.687Z,29.82
2018-06-08T00:55:21.986Z,28.96
2018-06-08T00:57:50.250Z,32.58
2018-06-08T01:00:18.567Z,32.42
2018-06-08T01:02:46.862Z,32.58
2018-06-08T01:05:14.360Z,34.06
2018-06-08T01:07:42.660Z,32.50
2018-06-08T01:10:10.926Z,33.02
2018-06-08T01:12:40.306Z,31.46
2018-06-08T01:15:09.380Z,31.02
2018-06-08T01:17:40.895Z,31.84
2018-06-08T01:20:10.112Z,32.68
2018-06-08T01:22:38.411Z,34.78
2018-06-08T01:25:06.700Z,33.80
2018-06-08T01:27:36.146Z,35.74
2018-06-08T01:30:04.432Z,34.24
2018-06-08T01:32:32.709Z,33.62
2018-06-08T01:35:00.998Z,33.08
2018-06-08T01:37:29.275Z,39.10
2018-06-08T01:39:57.577Z,40.62
2018-06-08T01:42:25.862Z,38.10
2018-06-08T01:44:54.125Z,39.74
2018-06-08T01:47:22.434Z,40.88
2018-06-08T01:49:50.699Z,39.86
2018-06-08T01:52:20.929Z,40.62
2018-06-08T01:54:49.224Z,46.82
2018-06-08T01:57:17.497Z,47.24
2018-06-08T01:59:45.780Z,42.76
2018-06-08T02:02:13.321Z,46.50
2018-06-08T02:04:41.645Z,47.02
2018-06-08T02:07:11.288Z,46.62
2018-06-08T02:09:40.478Z,49.12
2018-06-08T02:12:09.462Z,54.60
2018-06-08T02:14:37.734Z,55.38
2018-06-08T02:17:07.021Z,49.42
2018-06-08T02:19:36.403Z,54.20
2018-06-08T02:22:04.661Z,59.14
2018-06-08T02:24:32.941Z,60.18
2018-06-08T02:27:01.246Z,57.74
2018-06-08T02:29:29.534Z,60.40
2018-06-08T02:31:57.797Z,57.10
2018-06-08T02:34:26.093Z,57.48
2018-06-08T02:36:54.400Z,56.18
2018-06-08T02:39:22.661Z,60.96
2018-06-08T02:41:50.954Z,60.26
2018-06-08T02:44:19.213Z,58.66
2018-06-08T02:46:47.514Z,55.12
2018-06-08T02:49:15.781Z,54.54
2018-06-08T02:51:44.109Z,53.60
2018-06-08T02:54:12.412Z,55.58
2018-06-08T02:56:42.860Z,53.14
2018-06-08T02:59:11.133Z,45.34
2018-06-08T03:01:41.583Z,45.82
2018-06-08T03:04:10.903Z,43.44
2018-06-08T03:06:40.577Z,39.92
2018-06-08T03:09:10.214Z,39.94
2018-06-08T03:11:40.206Z,38.42
2018-06-08T03:14:09.193Z,38.54
2018-06-08T03:16:40.944Z,38.48
2018-06-08T03:19:10.755Z,35.88
2018-06-08T03:21:40.124Z,33.48
2018-06-08T03:24:08.421Z,34.26
2018-06-08T03:26:42.038Z,35.08
2018-06-08T03:29:11.310Z,36.24
2018-06-08T03:31:40.541Z,36.76
2018-06-08T03:34:08.805Z,38.24
2018-06-08T03:36:40.217Z,40.16
2018-06-08T03:39:10.071Z,36.42
2018-06-08T03:41:40.621Z,39.90
2018-06-08T03:44:08.913Z,41.04
2018-06-08T03:46:37.218Z,44.24
2018-06-08T03:49:06.420Z,40.32
2018-06-08T03:51:34.701Z,37.54
2018-06-08T03:54:03.006Z,39.90
2018-06-08T03:56:36.540Z,36.50
2018-06-08T03:59:06.024Z,34.60
2018-06-08T04:01:39.370Z,33.34
2018-06-08T04:04:07.662Z,33.26
2018-06-08T04:06:35.931Z,31.22
2018-06-08T04:09:04.983Z,31.02
2018-06-08T04:11:35.624Z,31.92
2018-06-08T04:14:04.962Z,30.38
2018-06-08T04:16:33.257Z,31.98
2018-06-08T04:19:01.525Z,35.58
2018-06-08T04:21:38.207Z,33.08
2018-06-08T04:24:06.474Z,33.52
2018-06-08T04:26:35.753Z,38.40
2018-06-08T04:29:05.054Z,36.60
2018-06-08T04:31:41.060Z,38.82
2018-06-08T04:34:10.946Z,36.76
2018-06-08T04:36:40.079Z,39.72
2018-06-08T04:39:10.029Z,35.48
2018-06-08T04:41:40.535Z,35.32
2018-06-08T04:44:08.833Z,38.34
2018-06-08T04:46:38.074Z,35.50
2018-06-08T04:49:06.374Z,36.44
2018-06-08T04:51:34.679Z,37.16
2018-06-08T04:54:05.271Z,35.52
2018-06-08T04:56:34.432Z,34.08
2018-06-08T04:59:09.725Z,31.58
2018-06-08T05:01:37.986Z,32.34
2018-06-08T05:04:07.285Z,32.56
2018-06-08T05:06:36.165Z,30.90
2018-06-08T05:09:04.981Z,31.14
2018-06-08T05:11:33.305Z,30.70
2018-06-08T05:14:01.604Z,30.38
2018-06-08T05:16:30.814Z,30.82
2018-06-08T05:18:59.149Z,26.82
2018-06-08T05:21:28.345Z,27.20
2018-06-08T05:23:56.616Z,27.78
2018-06-08T05:26:24.922Z,24.62
2018-06-08T05:28:53.227Z,25.32
2018-06-08T05:31:22.467Z,26.92
2018-06-08T05:33:50.717Z,27.80
2018-06-08T05:36:29.515Z,24.82
2018-06-08T05:38:57.014Z,24.56
2018-06-08T05:41:25.305Z,24.48
2018-06-08T05:43:53.561Z,26.98
2018-06-08T05:46:31.625Z,24.42
2018-06-08T05:48:59.894Z,24.06
2018-06-08T05:51:28.200Z,22.24
2018-06-08T05:53:56.458Z,26.78
2018-06-08T05:56:24.757Z,28.24
2018-06-08T05:58:53.025Z,27.82
2018-06-08T06:01:21.334Z,28.34
2018-06-08T06:03:48.841Z,27.40
2018-06-08T06:06:17.343Z,24.84
2018-06-08T06:08:45.639Z,23.80
2018-06-08T06:11:13.914Z,23.88
2018-06-08T06:13:42.214Z,24.50
2018-06-08T06:16:11.491Z,24.94
2018-06-08T06:18:39.753Z,25.72
2018-06-08T06:21:08.046Z,24.16
2018-06-08T06:23:36.333Z,24.26
2018-06-08T06:26:10.617Z,26.38
2018-06-08T06:28:38.913Z,25.80
2018-06-08T06:31:09.732Z,23.96
2018-06-08T06:33:38.015Z,25.46
2018-06-08T06:36:06.253Z,24.30
2018-06-08T06:38:35.440Z,23.80
2018-06-08T06:41:09.609Z,26.98
2018-06-08T06:43:37.896Z,22.82
2018-06-08T06:46:06.161Z,22.36
2018-06-08T06:48:35.418Z,24.08
2018-06-08T06:51:10.552Z,25.96
2018-06-08T06:53:39.286Z,22.06
2018-06-08T06:56:09.510Z,23.98
2018-06-08T06:58:37.797Z,23.90
2018-06-08T07:01:06.090Z,25.14
2018-06-08T07:03:35.358Z,22.54
2018-06-08T07:06:02.856Z,24.94
2018-06-08T07:08:31.157Z,27.14
2018-06-08T07:10:58.653Z,23.32
2018-06-08T07:13:26.968Z,24.26
2018-06-08T07:15:55.225Z,26.42
2018-06-08T07:18:23.522Z,25.12
2018-06-08T07:20:51.777Z,25.76
2018-06-08T07:23:20.077Z,24.54
2018-06-08T07:25:48.371Z,24.88
2018-06-08T07:28:16.629Z,24.72
2018-06-08T07:30:44.925Z,25.84
2018-06-08T07:33:13.223Z,24.86
2018-06-08T07:35:41.482Z,24.90
2018-06-08T07:38:10.644Z,25.84
2018-06-08T07:40:39.534Z,25.68
2018-06-08T07:43:07.833Z,24.98
2018-06-08T07:45:37.424Z,27.90
2018-06-08T07:48:06.672Z,26.40
2018-06-08T07:50:34.929Z,25.10
2018-06-08T07:53:03.189Z,23.58
2018-06-08T07:55:31.487Z,26.24
2018-06-08T07:57:59.744Z,24.60
2018-06-08T08:00:28.034Z,25.32
2018-06-08T08:02:56.318Z,21.28
2018-06-08T08:05:24.586Z,23.12
2018-06-08T08:07:52.952Z,24.28
2018-06-08T08:10:21.160Z,20.04
2018-06-08T08:12:49.456Z,20.60
2018-06-08T08:15:17.764Z,22.84
2018-06-08T08:17:46.022Z,21.64
2018-06-08T08:20:14.326Z,20.14
2018-06-08T08:22:42.590Z,18.42
2018-06-08T08:25:11.876Z,20.00
2018-06-08T08:27:40.195Z,17.72
2018-06-08T08:30:08.465Z,18.04
2018-06-08T08:32:37.422Z,17.42
2018-06-08T08:35:06.839Z,16.32
2018-06-08T08:37:35.110Z,15.56
2018-06-08T08:40:03.401Z,16.48
2018-06-08T08:42:31.693Z,16.68
2018-06-08T08:44:59.964Z,16.78
2018-06-08T08:47:28.272Z,17.76
2018-06-08T08:49:56.532Z,16.96
2018-06-08T08:52:24.841Z,18.08
2018-06-08T08:54:53.101Z,16.64
2018-06-08T08:57:21.398Z,15.98
2018-06-08T08:59:49.666Z,15.98
2018-06-08T09:02:17.948Z,16.70
2018-06-08T09:04:46.260Z,15.52
2018-06-08T09:07:14.530Z,16.94
2018-06-08T09:09:42.822Z,16.94
2018-06-08T09:12:12.410Z,15.72
2018-06-08T09:14:41.701Z,13.72
2018-06-08T09:17:10.873Z,13.76
2018-06-08T09:19:39.156Z,14.90
2018-06-08T09:22:06.644Z,16.88
2018-06-08T09:24:34.949Z,17.04
2018-06-08T09:27:03.217Z,15.92
2018-06-08T09:29:31.510Z,17.48
2018-06-08T09:31:59.752Z,16.20
2018-06-08T09:34:28.040Z,17.18
2018-06-08T09:36:56.301Z,15.06
2018-06-08T09:39:24.599Z,16.02
2018-06-08T09:41:52.870Z,16.60
2018-06-08T09:44:21.165Z,15.62
2018-06-08T09:46:49.643Z,16.66
2018-06-08T09:49:17.944Z,15.66
2018-06-08T09:51:47.161Z,18.10
2018-06-08T09:54:16.408Z,19.14
2018-06-08T09:56:44.695Z,21.40
2018-06-08T09:59:12.225Z,20.98
2018-06-08T10:01:41.842Z,19.38
2018-06-08T10:04:12.082Z,20.66
2018-06-08T10:06:41.252Z,21.34
2018-06-08T10:09:11.581Z,21.86
2018-06-08T10:11:40.789Z,21.10
2018-06-08T10:14:08.289Z,20.98
2018-06-08T10:16:38.609Z,23.90
2018-06-08T10:19:08.053Z,22.90
2018-06-08T10:21:38.610Z,23.02
2018-06-08T10:24:08.161Z,23.72
2018-06-08T10:26:44.312Z,27.54
2018-06-08T10:29:12.609Z,26.40
2018-06-08T10:31:48.601Z,25.44
2018-06-08T10:34:16.899Z,27.62
2018-06-08T10:36:46.180Z,27.98
2018-06-08T10:39:14.493Z,27.36
2018-06-08T10:41:46.161Z,26.10
2018-06-08T10:44:14.441Z,25.82
2018-06-08T10:46:42.864Z,26.78
2018-06-08T10:49:11.090Z,25.28
2018-06-08T10:51:39.965Z,25.36
2018-06-08T10:54:08.274Z,27.78
2018-06-08T10:56:40.814Z,29.58
2018-06-08T10:59:09.083Z,28.92
2018-06-08T11:01:38.628Z,31.36
2018-06-08T11:04:08.132Z,31.20
2018-06-08T11:06:46.588Z,31.20
2018-06-08T11:09:14.847Z,33.28
2018-06-08T11:11:45.074Z,35.66
2018-06-08T11:14:13.337Z,34.28
2018-06-08T11:16:52.092Z,40.20
2018-06-08T11:19:20.349Z,38.04
2018-06-08T11:22:11.690Z,40.68
2018-06-08T11:24:40.370Z,38.16
2018-06-08T11:27:11.740Z,40.30
2018-06-08T11:29:40.046Z,42.94
2018-06-08T11:32:10.388Z,40.72
2018-06-08T11:34:38.782Z,41.00
2018-06-08T11:37:07.900Z,40.50
2018-06-08T11:39:36.800Z,43.12
2018-06-08T11:42:05.097Z,45.20
2018-06-08T11:44:56.241Z,42.44
2018-06-08T11:47:24.533Z,44.20
2018-06-08T11:49:53.712Z,43.84
2018-06-08T11:52:22.012Z,44.30
2018-06-08T11:54:50.323Z,44.54
2018-06-08T11:57:18.617Z,45.40
2018-06-08T11:59:46.872Z,42.76
2018-06-08T12:02:14.405Z,41.08
2018-06-08T12:04:55.964Z,33.48
2018-06-08T12:07:24.271Z,34.18
2018-06-08T12:09:53.445Z,32.70
2018-06-08T12:12:21.725Z,32.14
2018-06-08T12:14:49.993Z,31.78
2018-06-08T12:17:18.284Z,33.84
2018-06-08T12:19:46.577Z,33.34
2018-06-08T12:22:19.961Z,33.94
2018-06-08T12:24:48.257Z,33.44
2018-06-08T12:27:16.531Z,32.62
2018-06-08T12:29:44.820Z,33.22
2018-06-08T12:32:16.567Z,34.60
2018-06-08T12:34:44.856Z,34.90
2018-06-08T12:37:13.154Z,34.90
2018-06-08T12:39:41.427Z,35.54
2018-06-08T12:42:14.000Z,38.38
2018-06-08T12:44:41.497Z,36.68
2018-06-08T12:47:10.336Z,39.58
2018-06-08T12:49:38.596Z,39.70
2018-06-08T12:52:11.232Z,40.46
2018-06-08T12:54:40.581Z,37.66
2018-06-08T12:57:10.447Z,40.84
2018-06-08T12:59:38.821Z,40.32
2018-06-08T13:02:07.685Z,41.74
2018-06-08T13:04:35.212Z,42.04
2018-06-08T13:07:03.486Z,42.52
2018-06-08T13:09:31.745Z,42.26
2018-06-08T13:12:04.527Z,42.94
2018-06-08T13:14:32.792Z,49.22
2018-06-08T13:17:05.662Z,42.80
2018-06-08T13:19:33.896Z,43.18
2018-06-08T13:22:07.481Z,44.12
2018-06-08T13:24:36.137Z,47.96
2018-06-08T13:27:11.234Z,47.50
2018-06-08T13:29:40.497Z,47.68
2018-06-08T13:32:08.790Z,45.96
2018-06-08T13:34:38.289Z,48.20
2018-06-08T13:37:06.545Z,48.78
2018-06-08T13:39:34.882Z,48.92
2018-06-08T13:42:12.989Z,46.48
2018-06-08T13:44:41.285Z,56.46
2018-06-08T13:47:10.793Z,57.12
2018-06-08T13:49:39.658Z,54.92
2018-06-08T13:52:25.202Z,56.34
2018-06-08T13:54:53.553Z,54.26
2018-06-08T13:57:32.372Z,53.30
2018-06-08T14:00:00.650Z,53.24
2018-06-08T14:02:37.385Z,53.16
2018-06-08T14:05:06.101Z,55.06
2018-06-08T14:07:41.414Z,50.60
2018-06-08T14:10:11.093Z,47.84
2018-06-08T14:12:38.609Z,53.96
2018-06-08T14:15:07.909Z,53.00
2018-06-08T14:17:38.205Z,53.98
2018-06-08T14:20:07.406Z,60.42
2018-06-08T14:22:39.202Z,60.32
2018-06-08T14:25:08.036Z,63.90
2018-06-08T14:27:38.357Z,58.06
2018-06-08T14:30:06.589Z,57.58
2018-06-08T14:32:34.878Z,60.96
2018-06-08T14:35:10.278Z,57.58
2018-06-08T14:37:38.566Z,54.72
2018-06-08T14:40:27.729Z,54.68
2018-06-08T14:42:56.023Z,53.54
2018-06-08T14:45:41.193Z,50.44
2018-06-08T14:48:10.629Z,51.98
2018-06-08T14:50:41.980Z,56.28
2018-06-08T14:53:11.586Z,51.20
2018-06-08T14:55:40.817Z,53.46
2018-06-08T14:58:09.116Z,48.80
2018-06-08T15:00:41.140Z,52.74
2018-06-08T15:03:10.497Z,52.00
2018-06-08T15:05:40.680Z,58.36
2018-06-08T15:08:09.693Z,56.28
2018-06-08T15:10:37.988Z,55.02
2018-06-08T15:13:07.229Z,52.36
2018-06-08T15:15:36.158Z,53.88
2018-06-08T15:18:06.072Z,51.78
2018-06-08T15:20:34.356Z,47.58
2018-06-08T15:23:02.669Z,44.78
2018-06-08T15:25:30.969Z,43.32
2018-06-08T15:27:59.460Z,38.34
2018-06-08T15:30:27.740Z,41.70
2018-06-08T15:32:59.733Z,38.64
2018-06-08T15:35:28.061Z,36.98
2018-06-08T15:38:03.609Z,38.42
2018-06-08T15:40:31.920Z,38.42
2018-06-08T15:43:02.174Z,32.38
2018-06-08T15:45:30.444Z,33.60
2018-06-08T15:48:00.797Z,33.50
2018-06-08T15:50:29.055Z,33.80
2018-06-08T15:52:57.369Z,27.92
2018-06-08T15:55:25.635Z,29.36
2018-06-08T15:57:53.934Z,29.06
2018-06-08T16:00:22.197Z,31.06
2018-06-08T16:02:50.532Z,30.30
2018-06-08T16:05:18.793Z,31.34
2018-06-08T16:07:47.052Z,30.64
2018-06-08T16:10:15.353Z,31.58
2018-06-08T16:12:43.620Z,29.10
2018-06-08T16:15:11.918Z,32.32
2018-06-08T16:17:40.181Z,27.54
2018-06-08T16:20:08.486Z,32.44
2018-06-08T16:22:36.771Z,31.42
2018-06-08T16:25:05.024Z,32.02
2018-06-08T16:27:33.320Z,32.04
2018-06-08T16:30:02.599Z,32.06
2018-06-08T16:32:30.861Z,30.36
2018-06-08T16:34:58.422Z,33.32
2018-06-08T16:37:26.692Z,36.04
2018-06-08T16:39:55.002Z,32.32
2018-06-08T16:42:23.273Z,31.34
2018-06-08T16:44:51.573Z,31.24
2018-06-08T16:47:19.878Z,32.42
2018-06-08T16:49:48.150Z,30.18
2018-06-08T16:52:16.449Z,30.82
2018-06-08T16:54:44.713Z,30.30
2018-06-08T16:57:13.021Z,30.16
2018-06-08T16:59:41.291Z,30.98
2018-06-08T17:02:09.912Z,30.48
2018-06-08T17:04:38.182Z,29.28
2018-06-08T17:07:07.441Z,30.74
2018-06-08T17:09:36.176Z,30.94
2018-06-08T17:12:04.478Z,30.74
2018-06-08T17:14:32.763Z,28.74
2018-06-08T17:17:01.033Z,30.70
2018-06-08T17:19:29.341Z,31.06
2018-06-08T17:21:57.637Z,30.54
2018-06-08T17:24:25.931Z,31.64
2018-06-08T17:26:54.215Z,30.22
2018-06-08T17:29:22.521Z,30.28
2018-06-08T17:31:50.800Z,34.50
2018-06-08T17:34:19.101Z,31.06
2018-06-08T17:36:47.404Z,31.86
2018-06-08T17:39:14.936Z,35.62
2018-06-08T17:41:43.212Z,34.08
2018-06-08T17:44:11.509Z,34.04
2018-06-08T17:46:40.646Z,34.14
2018-06-08T17:49:09.667Z,33.76
2018-06-08T17:51:38.267Z,34.84
2018-06-08T17:54:07.488Z,34.30
2018-06-08T17:56:36.175Z,33.92
2018-06-08T17:59:04.474Z,37.28
2018-06-08T18:01:32.836Z,32.28
2018-06-08T18:04:01.106Z,36.10
2018-06-08T18:06:29.406Z,35.36
2018-06-08T18:08:57.664Z,34.40
2018-06-08T18:11:25.952Z,34.92
2018-06-08T18:13:54.266Z,37.90
2018-06-08T18:16:25.535Z,34.50
2018-06-08T18:18:53.831Z,37.74
2018-06-08T18:21:22.132Z,34.78
2018-06-08T18:23:49.624Z,35.62
2018-06-08T18:26:17.928Z,36.58
2018-06-08T18:28:46.189Z,35.28
2018-06-08T18:31:14.502Z,34.98
2018-06-08T18:33:42.760Z,38.50
2018-06-08T18:36:12.186Z,36.02
2018-06-08T18:38:41.551Z,38.32
2018-06-08T18:41:10.681Z,37.22
2018-06-08T18:43:39.737Z,35.58
2018-06-08T18:46:08.049Z,37.80
2018-06-08T18:48:36.320Z,35.94
2018-06-08T18:51:04.581Z,35.58
2018-06-08T18:53:32.881Z,37.34
2018-06-08T18:56:01.145Z,34.94
2018-06-08T18:58:29.418Z,37.00
2018-06-08T19:00:57.710Z,38.08
2018-06-08T19:03:26.016Z,37.58
2018-06-08T19:05:54.305Z,39.06
2018-06-08T19:08:22.566Z,38.08
2018-06-08T19:10:50.864Z,37.12
2018-06-08T19:13:19.128Z,37.48
2018-06-08T19:15:47.420Z,40.36
2018-06-08T19:18:15.681Z,37.32
2018-06-08T19:20:43.950Z,36.62
2018-06-08T19:23:12.265Z,38.86
2018-06-08T19:25:41.170Z,36.66
2018-06-08T19:28:09.987Z,38.28
2018-06-08T19:30:38.283Z,42.64
2018-06-08T19:33:06.552Z,38.84
2018-06-08T19:35:34.808Z,39.54
2018-06-08T19:38:03.086Z,39.74
2018-06-08T19:40:31.389Z,38.04
2018-06-08T19:43:02.633Z,40.02
2018-06-08T19:45:30.899Z,38.10
2018-06-08T19:47:59.200Z,39.46
2018-06-08T19:50:27.473Z,40.64
2018-06-08T19:52:55.772Z,37.52
2018-06-08T19:55:24.049Z,36.82
2018-06-08T19:57:52.368Z,38.24
2018-06-08T20:00:20.638Z,38.16
2018-06-08T20:02:48.935Z,37.90
2018-06-08T20:05:17.212Z,38.44
2018-06-08T20:07:45.525Z,37.26
2018-06-08T20:10:13.785Z,37.84
2018-06-08T20:12:41.590Z,36.26
2018-06-08T20:15:10.771Z,37.68
2018-06-08T20:17:39.724Z,36.96
2018-06-08T20:20:07.992Z,38.20
2018-06-08T20:22:36.286Z,39.46
2018-06-08T20:25:04.557Z,38.18
2018-06-08T20:27:32.852Z,44.06
2018-06-08T20:30:01.153Z,39.84
2018-06-08T20:32:29.415Z,39.90
2018-06-08T20:34:59.630Z,38.58
2018-06-08T20:37:27.160Z,37.18
2018-06-08T20:39:55.428Z,37.82
2018-06-08T20:42:23.718Z,38.56
2018-06-08T20:44:52.018Z,40.20
2018-06-08T20:47:20.280Z,39.58
2018-06-08T20:49:48.579Z,39.86
2018-06-08T20:52:16.843Z,42.96
2018-06-08T20:54:44.383Z,38.88
2018-06-08T20:57:12.653Z,41.24
2018-06-08T20:59:42.062Z,42.02
2018-06-08T21:02:11.679Z,40.14
2018-06-08T21:04:40.817Z,41.86
2018-06-08T21:07:09.801Z,44.06
2018-06-08T21:09:38.068Z,42.14
2018-06-08T21:12:06.374Z,44.40
2018-06-08T21:14:34.681Z,43.00
2018-06-08T21:17:02.941Z,42.40
2018-06-08T21:19:31.250Z,43.54
2018-06-08T21:21:58.758Z,44.28
2018-06-08T21:24:27.021Z,42.94
2018-06-08T21:26:55.333Z,45.24
2018-06-08T21:29:23.593Z,44.80
2018-06-08T21:31:51.881Z,43.94
2018-06-08T21:34:20.153Z,42.18
2018-06-08T21:36:48.458Z,43.20
2018-06-08T21:39:16.726Z,44.26
2018-06-08T21:41:45.026Z,44.44
2018-06-08T21:44:13.297Z,44.64
2018-06-08T21:46:41.938Z,46.74
2018-06-08T21:49:10.553Z,45.60
2018-06-08T21:51:40.495Z,43.30
2018-06-08T21:54:08.760Z,44.82
2018-06-08T21:56:37.100Z,46.02
2018-06-08T21:59:05.357Z,43.54
2018-06-08T22:01:33.620Z,51.68
2018-06-08T22:04:01.906Z,49.46
2018-06-08T22:06:30.181Z,47.42
2018-06-08T22:08:57.718Z,48.18
2018-06-08T22:11:25.989Z,48.64
2018-06-08T22:13:54.278Z,51.48
2018-06-08T22:16:22.550Z,45.32
2018-06-08T22:18:50.829Z,48.22
2018-06-08T22:21:19.101Z,44.14
2018-06-08T22:23:47.409Z,48.24
2018-06-08T22:26:15.758Z,44.50
2018-06-08T22:28:43.950Z,44.80
2018-06-08T22:31:12.246Z,44.92
2018-06-08T22:33:41.429Z,41.88
2018-06-08T22:36:10.863Z,42.66
2018-06-08T22:38:39.553Z,45.80
2018-06-08T22:41:07.860Z,41.90
2018-06-08T22:43:36.142Z,41.70
2018-06-08T22:46:04.450Z,39.22
2018-06-08T22:48:32.721Z,40.84
2018-06-08T22:51:00.990Z,38.24
2018-06-08T22:53:29.284Z,39.16
2018-06-08T22:55:57.572Z,35.96
2018-06-08T22:58:25.833Z,40.20
2018-06-08T23:00:54.172Z,38.56
2018-06-08T23:03:22.453Z,38.40
2018-06-08T23:05:50.713Z,39.92
2018-06-08T23:08:18.218Z,37.14
2018-06-08T23:10:46.509Z,35.32
2018-06-08T23:13:14.791Z,34.74
2018-06-08T23:15:43.101Z,35.54
2018-06-08T23:18:11.687Z,36.46
2018-06-08T23:20:40.489Z,38.26
2018-06-08T23:23:09.929Z,36.62
2018-06-08T23:25:38.225Z,33.42
2018-06-08T23:28:06.497Z,33.82
2018-06-08T23:30:34.805Z,33.60
2018-06-08T23:33:03.122Z,37.14
2018-06-08T23:35:31.386Z,36.38
2018-06-08T23:37:59.693Z,34.76
2018-06-08T23:40:27.960Z,34.18
2018-06-08T23:42:56.256Z,38.62
2018-06-08T23:45:24.554Z,36.66
2018-06-08T23:47:52.820Z,36.66
2018-06-08T23:50:21.115Z,36.42
2018-06-08T23:52:49.391Z,37.36
2018-06-08T23:55:17.694Z,36.34
2018-06-08T23:57:45.192Z,38.40
